createdAt,value
2023-12-18T00:00:03.136Z,1007.37
2023-12-18T00:05:03.055Z,1007.46
2023-12-18T00:10:03.071Z,1007.59
2023-12-18T00:15:02.986Z,1007.64
2023-12-18T00:20:05.033Z,1007.6
2023-12-18T00:25:02.982Z,1007.7
2023-12-18T00:30:03.074Z,1007.87
2023-12-18T00:35:02.968Z,1007.95
2023-12-18T00:40:03.009Z,1008.06
2023-12-18T00:45:02.962Z,1008.04
2023-12-18T00:50:04.662Z,1008.15
2023-12-18T00:55:02.903Z,1008.22
2023-12-18T01:00:03.051Z,1008.22
2023-12-18T01:05:02.921Z,1008.34
2023-12-18T01:10:02.976Z,1008.29
2023-12-18T01:15:02.993Z,1008.25
2023-12-18T01:20:03.024Z,1008.35
2023-12-18T01:25:02.961Z,1008.49
2023-12-18T01:30:03.081Z,1008.47
2023-12-18T01:35:02.981Z,1008.43
2023-12-18T01:40:02.911Z,1008.46
2023-12-18T01:45:02.961Z,1008.48
2023-12-18T01:50:03.056Z,1008.53
2023-12-18T01:55:02.915Z,1008.57
2023-12-18T02:00:03.054Z,1008.5
2023-12-18T02:05:02.867Z,1008.5
2023-12-18T02:10:03.207Z,1008.71
2023-12-18T02:15:02.904Z,1008.5
2023-12-18T02:20:02.972Z,1008.48
2023-12-18T02:25:02.886Z,1008.41
2023-12-18T02:30:03.051Z,1008.37
2023-12-18T02:35:02.975Z,1008.35
2023-12-18T02:40:03.017Z,1008.3
2023-12-18T02:45:03.016Z,1008.21
2023-12-18T02:50:02.936Z,1008.13
2023-12-18T02:55:02.903Z,1007.97
2023-12-18T03:00:03.049Z,1008.04
2023-12-18T03:05:03.048Z,1008.07
2023-12-18T03:10:03.184Z,1008.09
2023-12-18T03:15:03.002Z,1008.08
2023-12-18T03:20:03.035Z,1008.19
2023-12-18T03:25:02.993Z,1008.26
2023-12-18T03:30:02.977Z,1008.18
2023-12-18T03:35:02.974Z,1008.25
2023-12-18T03:40:03.043Z,1008.04
2023-12-18T03:45:02.937Z,1007.91
2023-12-18T03:50:02.963Z,1007.95
2023-12-18T03:55:02.907Z,1007.9
2023-12-18T04:00:03.148Z,1007.78
2023-12-18T04:05:02.925Z,1007.69
2023-12-18T04:10:03.743Z,1007.69
2023-12-18T04:15:02.945Z,1007.62
2023-12-18T04:20:03.141Z,1007.48
2023-12-18T04:25:02.926Z,1007.41
2023-12-18T04:30:03.156Z,1007.44
2023-12-18T04:35:02.929Z,1007.32
2023-12-18T04:40:02.986Z,1007.25
2023-12-18T04:45:03.118Z,1007.2
2023-12-18T04:50:02.985Z,1007.14
2023-12-18T04:55:02.865Z,1007.14
2023-12-18T05:00:03.045Z,1007.15
2023-12-18T05:05:02.970Z,1007.09
2023-12-18T05:10:02.992Z,1007.09
2023-12-18T05:15:03.414Z,1007.04
2023-12-18T05:20:02.992Z,1007.09
2023-12-18T05:25:02.987Z,1007.13
2023-12-18T05:30:03.017Z,1007.18
2023-12-18T05:35:02.950Z,1007.16
2023-12-18T05:40:03.042Z,1007.11
2023-12-18T05:45:02.945Z,1007.06
2023-12-18T05:50:03.087Z,1007.03
2023-12-18T05:55:03.698Z,1007.07
2023-12-18T06:00:03.260Z,1007.12
2023-12-18T06:05:02.878Z,1007.05
2023-12-18T06:10:02.966Z,1007.07
2023-12-18T06:15:02.939Z,1007.05
2023-12-18T06:20:03.101Z,1006.99
2023-12-18T06:25:02.928Z,1006.98
2023-12-18T06:30:03.060Z,1006.96
2023-12-18T06:35:03.003Z,1006.97
2023-12-18T06:40:02.948Z,1006.94
2023-12-18T06:45:02.950Z,1006.93
2023-12-18T06:50:03.042Z,1006.87
2023-12-18T06:55:02.896Z,1006.85
2023-12-18T07:00:02.986Z,1006.77
2023-12-18T07:05:02.967Z,1006.68
2023-12-18T07:10:03.031Z,1006.65
2023-12-18T07:15:02.932Z,1006.66
2023-12-18T07:20:02.973Z,1006.67
2023-12-18T07:25:02.912Z,1006.72
2023-12-18T07:30:02.958Z,1006.78
2023-12-18T07:35:03.066Z,1006.79
2023-12-18T07:40:02.998Z,1006.73
2023-12-18T07:45:02.923Z,1006.72
2023-12-18T07:50:03.054Z,1006.72
2023-12-18T07:55:02.970Z,1006.77
2023-12-18T08:00:03.058Z,1006.78
2023-12-18T08:05:02.958Z,1006.77
2023-12-18T08:10:02.992Z,1006.92
2023-12-18T08:15:02.881Z,1006.95
2023-12-18T08:20:03.043Z,1006.93
2023-12-18T08:25:02.952Z,1006.85
2023-12-18T08:30:03.068Z,1006.71
2023-12-18T08:35:02.917Z,1006.71
2023-12-18T08:40:03.208Z,1006.68
2023-12-18T08:45:02.920Z,1006.66
2023-12-18T08:50:02.983Z,1006.62
2023-12-18T08:55:03.008Z,1006.7
2023-12-18T09:00:03.224Z,1006.82
2023-12-18T09:05:02.967Z,1006.86
2023-12-18T09:10:02.980Z,1006.79
2023-12-18T09:15:02.885Z,1006.79
2023-12-18T09:20:02.975Z,1006.81
2023-12-18T09:25:03.005Z,1006.77
2023-12-18T09:30:03.074Z,1006.77
2023-12-18T09:35:03.021Z,1006.8
2023-12-18T09:40:03.010Z,1006.78
2023-12-18T09:45:02.892Z,1006.71
2023-12-18T09:50:03.034Z,1006.69
2023-12-18T09:55:02.950Z,1006.7
2023-12-18T10:00:03.183Z,1006.69
2023-12-18T10:05:02.960Z,1006.68
2023-12-18T10:10:02.927Z,1006.63
2023-12-18T10:15:02.925Z,1006.56
2023-12-18T10:20:03.058Z,1006.57
2023-12-18T10:25:02.922Z,1006.69
2023-12-18T10:30:02.914Z,1006.68
2023-12-18T10:35:03.035Z,1006.67
2023-12-18T10:40:03.021Z,1006.7
2023-12-18T10:45:02.912Z,1006.75
2023-12-18T10:50:03.106Z,1006.86
2023-12-18T10:55:02.941Z,1006.91
2023-12-18T11:00:03.055Z,1006.9
2023-12-18T11:05:03.074Z,1006.75
2023-12-18T11:10:03.052Z,1006.84
2023-12-18T11:15:03.033Z,1006.9
2023-12-18T11:20:03.149Z,1006.9
2023-12-18T11:25:02.901Z,1006.94
2023-12-18T11:30:02.966Z,1007.04
2023-12-18T11:35:03.057Z,1007.09
2023-12-18T11:40:03.098Z,1007.21
2023-12-18T11:45:02.847Z,1007.3
2023-12-18T11:50:03.186Z,1007.26
2023-12-18T11:55:02.901Z,1007.33
2023-12-18T12:00:03.153Z,1007.38
2023-12-18T12:05:02.943Z,1007.33
2023-12-18T12:10:03.080Z,1007.35
2023-12-18T12:15:03.015Z,1007.35
2023-12-18T12:20:03.058Z,1007.31
2023-12-18T12:25:02.954Z,1007.29
2023-12-18T12:30:03.010Z,1007.31
2023-12-18T12:35:03.000Z,1007.3
2023-12-18T12:40:03.002Z,1007.36
2023-12-18T12:45:02.860Z,1007.32
2023-12-18T12:50:03.266Z,1007.39
2023-12-18T12:55:02.898Z,1007.41
2023-12-18T13:00:03.066Z,1007.45
2023-12-18T13:05:02.900Z,1007.59
2023-12-18T13:10:02.974Z,1007.65
2023-12-18T13:15:02.859Z,1007.59
2023-12-18T13:20:09.023Z,1007.6
2023-12-18T13:25:02.884Z,1007.54
2023-12-18T13:30:03.000Z,1007.54
2023-12-18T13:35:02.898Z,1007.44
2023-12-18T13:40:03.015Z,1007.36
2023-12-18T13:45:03.252Z,1007.31
2023-12-18T13:50:03.158Z,1007.24
2023-12-18T13:55:03.022Z,1007.25
2023-12-18T14:00:03.040Z,1007.14
2023-12-18T14:05:03.008Z,1007.01
2023-12-18T14:10:03.007Z,1006.9
2023-12-18T14:15:02.843Z,1006.74
2023-12-18T14:20:03.125Z,1006.73
2023-12-18T14:25:03.378Z,1006.58
2023-12-18T14:30:02.933Z,1006.57
2023-12-18T14:35:02.977Z,1006.5
2023-12-18T14:40:03.057Z,1006.53
2023-12-18T14:45:02.925Z,1006.52
2023-12-18T14:50:03.207Z,1006.53
2023-12-18T14:55:02.996Z,1006.55
2023-12-18T15:00:02.983Z,1006.62
2023-12-18T15:05:02.864Z,1006.58
2023-12-18T15:10:03.232Z,1006.5
2023-12-18T15:15:02.999Z,1006.44
2023-12-18T15:20:03.354Z,1006.38
2023-12-18T15:25:02.938Z,1006.43
2023-12-18T15:30:03.037Z,1006.4
2023-12-18T15:35:03.048Z,1006.46
2023-12-18T15:40:02.980Z,1006.33
2023-12-18T15:45:02.939Z,1006.29
2023-12-18T15:50:03.229Z,1006.24
2023-12-18T15:55:02.843Z,1006.19
2023-12-18T16:00:03.119Z,1006.22
2023-12-18T16:05:02.978Z,1006.2
2023-12-18T16:10:03.054Z,1006.17
2023-12-18T16:15:02.979Z,1006.09
2023-12-18T16:20:03.181Z,1006.1
2023-12-18T16:25:03.063Z,1006.0
2023-12-18T16:30:06.265Z,1005.91
2023-12-18T16:35:03.016Z,1005.81
2023-12-18T16:40:03.144Z,1005.75
2023-12-18T16:45:02.848Z,1005.71
2023-12-18T16:50:03.027Z,1005.71
2023-12-18T16:55:03.106Z,1005.6
2023-12-18T17:00:08.962Z,1005.52
2023-12-18T17:05:03.001Z,1005.41
2023-12-18T17:10:03.175Z,1005.26
2023-12-18T17:15:02.960Z,1005.1
2023-12-18T17:20:03.117Z,1004.96
2023-12-18T17:25:02.936Z,1004.87
2023-12-18T17:30:03.100Z,1004.72
2023-12-18T17:35:03.103Z,1004.55
2023-12-18T17:40:03.053Z,1004.4
2023-12-18T17:45:02.944Z,1004.23
2023-12-18T17:50:03.080Z,1004.25
2023-12-18T17:55:02.931Z,1004.18
2023-12-18T18:00:03.055Z,1004.2
2023-12-18T18:05:02.945Z,1004.31
2023-12-18T18:10:03.150Z,1004.88
2023-12-18T18:15:02.933Z,1004.82
2023-12-18T18:20:03.123Z,1004.87
2023-12-18T18:25:02.962Z,1005.06
2023-12-18T18:30:03.901Z,1005.27
2023-12-18T18:35:02.962Z,1005.19
2023-12-18T18:40:02.991Z,1005.33
2023-12-18T18:45:02.890Z,1005.3
2023-12-18T18:50:03.164Z,1005.19
2023-12-18T18:55:03.034Z,1005.05
2023-12-18T19:00:03.064Z,1004.85
2023-12-18T19:05:02.869Z,1004.74
2023-12-18T19:10:03.104Z,1004.81
2023-12-18T19:15:02.984Z,1005.22
2023-12-18T19:20:03.075Z,1005.25
2023-12-18T19:25:02.953Z,1005.24
2023-12-18T19:30:03.008Z,1005.03
2023-12-18T19:35:03.041Z,1004.65
2023-12-18T19:40:03.027Z,1004.54
2023-12-18T19:45:02.949Z,1004.55
2023-12-18T19:50:03.103Z,1004.55
2023-12-18T19:55:02.944Z,1004.37
2023-12-18T20:00:03.123Z,1004.31
2023-12-18T20:05:02.860Z,1004.32
2023-12-18T20:10:03.059Z,1004.22
2023-12-18T20:15:03.052Z,1004.17
2023-12-18T20:20:02.985Z,1004.16
2023-12-18T20:25:02.946Z,1004.18
2023-12-18T20:30:03.143Z,1004.17
2023-12-18T20:35:02.927Z,1004.23
2023-12-18T20:40:03.030Z,1004.38
2023-12-18T20:45:03.065Z,1004.47
2023-12-18T20:50:03.500Z,1004.74
2023-12-18T20:55:02.962Z,1004.7
2023-12-18T21:00:07.807Z,1004.62
2023-12-18T21:05:02.896Z,1004.74
2023-12-18T21:10:03.269Z,1004.69
2023-12-18T21:15:03.021Z,1004.65
2023-12-18T21:20:03.094Z,1004.66
2023-12-18T21:25:03.020Z,1004.72
2023-12-18T21:30:03.012Z,1004.71
2023-12-18T21:35:02.971Z,1004.67
2023-12-18T21:40:03.022Z,1004.8
2023-12-18T21:45:02.861Z,1004.98
2023-12-18T21:50:03.075Z,1005.09
2023-12-18T21:55:03.093Z,1005.19
2023-12-18T22:00:03.082Z,1005.17
2023-12-18T22:05:03.050Z,1005.31
2023-12-18T22:10:03.138Z,1005.42
2023-12-18T22:15:04.452Z,1005.49
2023-12-18T22:20:03.082Z,1005.63
2023-12-18T22:25:03.007Z,1005.7
2023-12-18T22:30:02.970Z,1005.74
2023-12-18T22:35:03.016Z,1005.76
2023-12-18T22:40:03.046Z,1005.68
2023-12-18T22:45:03.152Z,1005.76
2023-12-18T22:50:03.013Z,1005.8
2023-12-18T22:55:03.020Z,1006.33
2023-12-18T23:00:03.032Z,1006.64
2023-12-18T23:05:02.967Z,1006.69
2023-12-18T23:10:03.069Z,1006.8
2023-12-18T23:15:02.943Z,1006.73
2023-12-18T23:20:03.259Z,1006.56
2023-12-18T23:25:02.941Z,1006.6
2023-12-18T23:30:03.025Z,1006.66
2023-12-18T23:35:02.948Z,1006.74
2023-12-18T23:40:03.025Z,1006.95
2023-12-18T23:45:02.872Z,1006.96
2023-12-18T23:50:03.009Z,1006.89
2023-12-18T23:55:02.927Z,1006.87
